Time;durP1;ratioP1;P1;durP2;ratioP2;P2;SDS_P1;SDS_P2;PMS_P1;PMS_P2;Temp;Humidity;BMP_temperature;BMP_pressure;BME280_temperature;BME280_humidity;BME280_pressure;Samples;Min_cycle;Max_cycle;Signal;HPM_P1;HPM_P2
2024/02/22 00:02:20;;;;;;;9.15;3.05;;;;;;;6.77;100.00;99937.22;5004159;28;20038;-79
2024/02/22 00:04:46;;;;;;;8.32;3.20;;;;;;;6.76;100.00;99935.59;5007994;28;20497;-80
2024/02/22 00:07:14;;;;;;;6.95;3.45;;;;;;;6.76;100.00;99924.97;4982440;28;20038;-80
2024/02/22 00:09:45;;;;;;;7.85;3.28;;;;;;;6.75;100.00;99925.22;5001961;28;20034;-79
2024/02/22 00:12:14;;;;;;;6.93;3.40;;;;;;;6.75;100.00;99914.59;4990746;28;20124;-81
2024/02/22 00:14:40;;;;;;;8.73;3.30;;;;;;;6.73;100.00;99914.84;4988394;28;20499;-79
2024/02/22 00:17:06;;;;;;;7.97;3.10;;;;;;;6.73;100.00;99917.53;5005478;28;20042;-80
2024/02/22 00:19:32;;;;;;;9.48;4.05;;;;;;;6.72;100.00;99907.16;4998661;28;20817;-80
2024/02/22 00:21:59;;;;;;;9.57;3.70;;;;;;;6.73;100.00;99901.56;5010941;28;20043;-80
2024/02/22 00:24:28;;;;;;;6.93;3.25;;;;;;;6.72;100.00;99899.16;4983561;28;20030;-80
2024/02/22 00:26:54;;;;;;;8.57;3.50;;;;;;;6.72;100.00;99891.97;4994359;28;20048;-79
2024/02/22 00:29:19;;;;;;;7.65;3.47;;;;;;;6.71;100.00;99893.03;4998812;28;20119;-80
2024/02/22 00:31:45;;;;;;;9.75;3.42;;;;;;;6.71;100.00;99890.38;5007924;28;20084;-78
2024/02/22 00:34:11;;;;;;;7.65;3.22;;;;;;;6.71;100.00;99893.03;4987557;28;20034;-80
2024/02/22 00:36:43;;;;;;;10.32;3.40;;;;;;;6.71;100.00;99879.75;5003222;28;20041;-78
2024/02/22 00:39:13;;;;;;;6.95;3.67;;;;;;;6.71;100.00;99877.09;5002383;28;20041;-81
2024/02/22 00:41:39;;;;;;;9.55;3.72;;;;;;;6.71;100.00;99866.44;4988250;28;20156;-78
2024/02/22 00:44:07;;;;;;;8.80;3.20;;;;;;;6.71;100.00;99865.63;4987847;28;20674;-78
2024/02/22 00:46:34;;;;;;;7.65;3.47;;;;;;;6.69;100.00;99857.91;4999155;28;20617;-78
2024/02/22 00:49:00;;;;;;;9.25;3.80;;;;;;;6.71;100.00;99857.66;4999981;28;20050;-79
2024/02/22 00:51:28;;;;;;;7.40;3.47;;;;;;;6.68;100.00;99845.66;4991922;28;20392;-78
2024/02/22 00:53:54;;;;;;;11.63;3.90;;;;;;;6.68;100.00;99848.31;4988187;28;20084;-79
2024/02/22 00:56:20;;;;;;;7.82;4.03;;;;;;;6.68;100.00;99840.34;4999643;28;20053;-79
2024/02/22 00:58:47;;;;;;;7.57;3.42;;;;;;;6.68;100.00;99839.53;4983401;28;20048;-76
2024/02/22 01:01:13;;;;;;;6.93;3.63;;;;;;;6.68;100.00;99824.38;5007796;28;20041;-80
2024/02/22 01:03:38;;;;;;;7.45;3.55;;;;;;;6.68;100.00;99815.59;5003640;28;20042;-78
2024/02/22 01:06:04;;;;;;;6.43;2.85;;;;;;;6.66;100.00;99815.88;4992142;28;20133;-78
2024/02/22 01:08:30;;;;;;;7.15;4.28;;;;;;;6.67;100.00;99808.69;4996252;28;20053;-80
2024/02/22 01:10:56;;;;;;;7.40;3.47;;;;;;;6.64;100.00;99807.38;4974326;28;20053;-77
2024/02/22 01:13:22;;;;;;;6.28;3.30;;;;;;;6.65;100.00;99798.31;5004526;28;20096;-77
2024/02/22 01:15:48;;;;;;;7.00;3.30;;;;;;;6.65;100.00;99793.00;5001618;28;20120;-77
2024/02/22 01:18:13;;;;;;;7.50;3.20;;;;;;;6.66;100.00;99789.25;5002963;28;20038;-77
2024/02/22 01:20:39;;;;;;;7.93;3.60;;;;;;;6.65;100.00;99784.22;5003246;28;20042;-77
2024/02/22 01:23:06;;;;;;;7.65;3.08;;;;;;;6.67;100.00;99768.78;5004248;28;20041;-78
2024/02/22 01:25:32;;;;;;;7.97;3.53;;;;;;;6.63;100.00;99768.50;5005513;28;20837;-79
2024/02/22 01:27:57;;;;;;;9.40;3.70;;;;;;;6.65;100.00;99765.59;4987837;28;20160;-79
2024/02/22 01:30:23;;;;;;;6.70;3.50;;;;;;;6.65;100.00;99761.06;4985272;28;20096;-77
2024/02/22 01:32:48;;;;;;;7.07;3.58;;;;;;;6.66;100.00;99760.00;4986770;28;20041;-78
2024/02/22 01:35:14;;;;;;;9.77;4.03;;;;;;;6.65;100.00;99749.63;4967376;28;20124;-77
2024/02/22 01:37:41;;;;;;;7.32;3.75;;;;;;;6.66;100.00;99745.91;4995148;28;20038;-77
2024/02/22 01:40:11;;;;;;;6.43;3.08;;;;;;;6.64;100.00;99743.50;4997948;28;20121;-78
2024/02/22 01:42:41;;;;;;;9.00;3.78;;;;;;;6.65;100.00;99745.09;4989606;28;20335;-79
2024/02/22 01:45:06;;;;;;;7.40;3.70;;;;;;;6.64;100.00;99743.50;4970337;28;20034;-77
2024/02/22 01:47:33;;;;;;;7.97;3.75;;;;;;;6.65;100.00;99726.47;5003516;28;20042;-78
2024/02/22 01:49:59;;;;;;;7.15;3.70;;;;;;;6.65;100.00;99729.16;5000423;28;20038;-78
2024/02/22 01:52:26;;;;;;;7.65;3.53;;;;;;;6.64;100.00;99719.56;4994062;28;20034;-78
2024/02/22 01:54:53;;;;;;;6.55;3.05;;;;;;;6.64;100.00;99711.59;4997715;28;20159;-78
2024/02/22 01:57:19;;;;;;;7.15;3.47;;;;;;;6.64;100.00;99706.28;4997529;28;20027;-79
2024/02/22 01:59:45;;;;;;;7.22;3.65;;;;;;;6.64;100.00;99692.97;5000048;28;20624;-78
2024/02/22 02:02:11;;;;;;;7.80;3.35;;;;;;;6.65;100.00;99691.09;5000480;28;20033;-78
2024/02/22 02:04:38;;;;;;;7.70;3.70;;;;;;;6.65;100.00;99696.41;4988371;28;20042;-78
2024/02/22 02:07:04;;;;;;;8.55;3.63;;;;;;;6.65;100.00;99686.56;5000667;28;20117;-78
2024/02/22 02:09:30;;;;;;;7.85;3.47;;;;;;;6.65;100.00;99691.91;4997384;28;20135;-79
2024/02/22 02:11:56;;;;;;;8.93;4.05;;;;;;;6.66;100.00;99682.84;4997337;28;20026;-79
2024/02/22 02:14:21;;;;;;;9.93;3.47;;;;;;;6.66;100.00;99682.84;5004453;28;20038;-77
2024/02/22 02:16:48;;;;;;;9.85;3.95;;;;;;;6.67;100.00;99679.13;5006002;28;20029;-78
2024/02/22 02:19:19;;;;;;;7.35;3.63;;;;;;;6.66;100.00;99672.19;4986146;28;20033;-79
2024/02/22 02:22:10;;;;;;;7.60;3.85;;;;;;;6.66;100.00;99666.88;4983301;28;20042;-79
2024/02/22 02:25:02;;;;;;;8.85;3.40;;;;;;;6.66;100.00;99668.75;4987406;28;20042;-78
2024/02/22 02:27:30;;;;;;;8.15;3.67;;;;;;;6.68;100.00;99663.94;4971670;28;20102;-78
2024/02/22 02:29:56;;;;;;;7.82;3.90;;;;;;;6.67;100.00;99655.16;4987879;28;20048;-77
2024/02/22 02:32:21;;;;;;;10.35;3.60;;;;;;;6.66;100.00;99648.25;5005147;28;20037;-76
2024/02/22 02:34:47;;;;;;;6.40;3.80;;;;;;;6.68;100.00;99645.31;4998863;28;20064;-79
2024/02/22 02:37:13;;;;;;;6.50;3.67;;;;;;;6.67;100.00;99641.88;5000879;28;20041;-77
2024/02/22 02:39:40;;;;;;;9.55;3.83;;;;;;;6.68;100.00;99630.16;4986104;28;20654;-77
2024/02/22 02:42:07;;;;;;;7.05;3.33;;;;;;;6.68;100.00;99629.34;4994121;28;20061;-78
2024/02/22 02:44:32;;;;;;;7.07;3.70;;;;;;;6.70;100.00;99629.88;5004351;28;20077;-78
2024/02/22 02:46:57;;;;;;;7.20;3.22;;;;;;;6.70;100.00;99628.00;5005342;28;20057;-78
2024/02/22 02:49:24;;;;;;;6.55;3.55;;;;;;;6.69;100.00;99617.63;5003181;28;20030;-77
2024/02/22 02:51:49;;;;;;;8.95;3.78;;;;;;;6.70;100.00;99614.69;5008321;28;20064;-80
2024/02/22 02:54:15;;;;;;;5.65;3.10;;;;;;;6.70;100.00;99609.38;5006407;28;20110;-77
2024/02/22 02:56:40;;;;;;;7.88;3.53;;;;;;;6.70;100.00;99604.06;5007566;28;20041;-77
2024/02/22 02:59:06;;;;;;;6.05;3.40;;;;;;;6.71;100.00;99603.03;4999794;28;20041;-78
2024/02/22 03:01:32;;;;;;;7.50;3.72;;;;;;;6.70;100.00;99598.75;5003673;28;20044;-77
2024/02/22 03:03:58;;;;;;;7.03;3.53;;;;;;;6.68;100.00;99587.59;4997465;28;20055;-77
2024/02/22 03:06:24;;;;;;;6.50;3.63;;;;;;;6.70;100.00;99589.97;4994574;28;20039;-78
2024/02/22 03:08:49;;;;;;;6.60;3.83;;;;;;;6.71;100.00;99588.91;5019961;28;20275;-78
2024/02/22 03:11:15;;;;;;;6.05;3.25;;;;;;;6.71;100.00;99578.28;5002660;28;20033;-79
2024/02/22 03:13:44;;;;;;;7.97;3.80;;;;;;;6.71;100.00;99579.06;4999051;28;20114;-78
2024/02/22 03:16:11;;;;;;;6.18;3.45;;;;;;;6.69;100.00;99565.22;4999761;28;20144;-77
2024/02/22 03:18:37;;;;;;;6.82;3.95;;;;;;;6.70;100.00;99566.81;5003938;28;20500;-78
2024/02/22 03:21:02;;;;;;;8.20;3.63;;;;;;;6.71;100.00;99567.63;4996407;28;20038;-77
2024/02/22 03:23:28;;;;;;;7.10;3.58;;;;;;;6.70;100.00;99553.50;5002053;28;20018;-77
2024/02/22 03:25:54;;;;;;;7.13;3.17;;;;;;;6.70;100.00;99555.38;4996315;28;20063;-79
2024/02/22 03:28:21;;;;;;;7.18;4.05;;;;;;;6.71;100.00;99557.78;5004406;28;20030;-80
2024/02/22 03:30:47;;;;;;;5.97;3.55;;;;;;;6.71;100.00;99541.81;4996236;28;20040;-79
2024/02/22 03:33:13;;;;;;;5.60;3.13;;;;;;;6.73;100.00;99539.69;4978689;28;20038;-79
2024/02/22 03:35:39;;;;;;;;;;;;;;;6.73;100.00;99542.34;4991645;28;20503;-77
2024/02/22 03:38:04;;;;;;;8.90;3.33;;;;;;;6.73;100.00;99531.69;5002943;28;19920;-77
2024/02/22 03:40:30;;;;;;;7.13;3.25;;;;;;;6.74;100.00;99529.81;5004484;28;20121;-77
2024/02/22 03:42:57;;;;;;;5.40;3.28;;;;;;;6.74;100.00;99530.63;5008348;28;20179;-76
2024/02/22 03:45:23;;;;;;;7.75;3.60;;;;;;;6.75;100.00;99521.56;5004400;28;20125;-78
2024/02/22 03:47:50;;;;;;;6.78;3.70;;;;;;;6.76;100.00;99523.16;5008189;28;20172;-77
2024/02/22 03:50:15;;;;;;;6.25;3.50;;;;;;;6.76;100.00;99517.03;5015414;28;20037;-77
2024/02/22 03:52:42;;;;;;;6.30;4.00;;;;;;;6.78;100.00;99515.72;5003111;28;20084;-75
2024/02/22 03:55:08;;;;;;;4.78;2.97;;;;;;;6.76;100.00;99512.50;5008459;28;20450;-76
2024/02/22 03:57:34;;;;;;;5.75;3.00;;;;;;;6.76;100.00;99517.81;4987947;28;20077;-77
2024/02/22 04:00:01;;;;;;;4.85;3.30;;;;;;;6.79;100.00;99511.97;4991331;28;20053;-78
2024/02/22 04:02:27;;;;;;;5.95;3.15;;;;;;;6.80;100.00;99508.25;5006961;28;20108;-77
2024/02/22 04:04:53;;;;;;;4.45;3.40;;;;;;;6.80;100.00;99497.59;4972692;28;20564;-79
2024/02/22 04:07:19;;;;;;;6.40;3.15;;;;;;;6.79;100.00;99501.34;5002136;28;20041;-76
2024/02/22 04:09:44;;;;;;;7.10;3.40;;;;;;;6.81;100.00;99493.06;5005260;28;20042;-77
2024/02/22 04:12:11;;;;;;;6.20;3.00;;;;;;;6.81;100.00;99496.53;5012500;28;20400;-77
2024/02/22 04:14:37;;;;;;;;;;;;;;;6.82;100.00;99492.78;4990722;28;20069;-80
2024/02/22 04:17:02;;;;;;;4.03;2.45;;;;;;;6.81;100.00;99485.88;5003508;28;19967;-78
2024/02/22 04:19:28;;;;;;;4.75;2.97;;;;;;;6.84;100.00;99485.34;5003532;28;20476;-77
2024/02/22 04:21:54;;;;;;;4.20;3.05;;;;;;;6.84;100.00;99482.69;4987127;28;20068;-76
2024/02/22 04:24:19;;;;;;;10.13;3.40;;;;;;;6.87;100.00;99475.22;4991116;28;20425;-76
2024/02/22 04:26:47;;;;;;;4.40;3.03;;;;;;;6.87;100.00;99468.03;4998889;28;20050;-76
2024/02/22 04:29:14;;;;;;;5.30;2.90;;;;;;;6.87;100.00;99465.34;5008024;28;20129;-76
2024/02/22 04:31:42;;;;;;;6.40;2.78;;;;;;;6.88;100.00;99468.81;5001904;28;20046;-77
2024/02/22 04:34:07;;;;;;;7.28;3.00;;;;;;;6.89;100.00;99465.06;4972899;28;20030;-77
2024/02/22 04:36:42;;;;;;;5.85;2.80;;;;;;;6.90;100.00;99461.34;4988398;28;20052;-77
2024/02/22 04:39:09;;;;;;;3.67;2.25;;;;;;;6.91;100.00;99457.59;5004034;28;20034;-77
2024/02/22 04:41:38;;;;;;;7.10;2.30;;;;;;;6.91;100.00;99468.25;5004765;28;20041;-75
2024/02/22 04:44:05;;;;;;;3.80;2.30;;;;;;;6.92;100.00;99459.22;5022393;28;20022;-76
2024/02/22 04:46:33;;;;;;;5.28;3.10;;;;;;;6.93;100.00;99463.47;5004349;28;20798;-77
2024/02/22 04:49:00;;;;;;;5.22;2.72;;;;;;;6.93;100.00;99458.13;5007874;28;20038;-78
2024/02/22 04:51:27;;;;;;;3.75;2.40;;;;;;;6.95;100.00;99456.00;5006643;28;20042;-77
2024/02/22 04:53:52;;;;;;;3.80;3.08;;;;;;;6.95;100.00;99451.47;5007111;28;20124;-78
2024/02/22 04:56:18;;;;;;;5.22;2.28;;;;;;;6.98;100.00;99455.44;5003479;28;20692;-76
2024/02/22 04:58:44;;;;;;;3.42;2.40;;;;;;;6.96;100.00;99444.28;5001872;28;20046;-76
2024/02/22 05:01:10;;;;;;;4.53;2.53;;;;;;;6.97;100.00;99443.97;5006569;28;20029;-76
2024/02/22 05:03:35;;;;;;;5.82;2.22;;;;;;;6.98;100.00;99444.81;5004676;28;20037;-76
2024/02/22 05:06:01;;;;;;;4.60;2.10;;;;;;;6.99;100.00;99451.72;5000168;28;20061;-75
2024/02/22 05:08:26;;;;;;;3.60;2.20;;;;;;;6.99;100.00;99441.06;4998546;28;20034;-76
2024/02/22 05:10:52;;;;;;;3.92;2.85;;;;;;;7.00;100.00;99438.13;5007281;28;20109;-76
2024/02/22 05:13:19;;;;;;;5.20;2.30;;;;;;;6.98;100.00;99434.16;5004793;28;20034;-76
2024/02/22 05:15:46;;;;;;;3.60;2.55;;;;;;;7.01;100.00;99433.59;5004995;28;20547;-78
2024/02/22 05:18:11;;;;;;;4.57;2.33;;;;;;;7.01;100.00;99428.25;4988524;28;20044;-76
2024/02/22 05:20:38;;;;;;;3.03;2.15;;;;;;;7.01;100.00;99428.25;5005449;28;20415;-77
2024/02/22 05:23:07;;;;;;;3.80;2.60;;;;;;;7.02;100.00;99427.19;5002777;28;20116;-77
2024/02/22 05:25:33;;;;;;;4.30;2.40;;;;;;;7.01;100.00;99423.72;5005414;28;20081;-77
2024/02/22 05:27:59;;;;;;;3.88;2.40;;;;;;;7.02;100.00;99422.66;5000103;28;20037;-76
2024/02/22 05:30:25;;;;;;;4.13;2.60;;;;;;;7.02;100.00;99419.19;4990090;28;20381;-76
2024/02/22 05:32:51;;;;;;;3.40;2.60;;;;;;;7.04;100.00;99417.06;5003574;28;20044;-77
2024/02/22 05:35:18;;;;;;;3.88;2.20;;;;;;;7.04;100.00;99417.06;5001214;28;20034;-76
2024/02/22 05:37:43;;;;;;;4.30;2.20;;;;;;;7.03;100.00;99410.94;5002681;28;20026;-77
2024/02/22 05:40:10;;;;;;;3.55;2.28;;;;;;;7.05;100.00;99413.34;5000124;28;20096;-77
2024/02/22 05:42:35;;;;;;;2.88;2.10;;;;;;;7.06;100.00;99412.25;4987207;28;20061;-77
2024/02/22 05:45:01;;;;;;;4.68;2.63;;;;;;;7.06;100.00;99406.94;5001499;28;20037;-77
2024/02/22 05:47:27;;;;;;;3.63;1.95;;;;;;;7.05;100.00;99408.81;4970203;28;20065;-76
2024/02/22 05:49:52;;;;;;;4.18;2.55;;;;;;;7.06;100.00;99402.41;5001493;28;20038;-75
2024/02/22 05:52:18;;;;;;;3.30;2.30;;;;;;;7.06;100.00;99394.41;4987670;28;20034;-76
2024/02/22 05:54:47;;;;;;;3.75;2.20;;;;;;;7.06;100.00;99388.31;4990738;28;20042;-77
2024/02/22 05:57:12;;;;;;;4.10;2.20;;;;;;;7.08;100.00;99380.81;5013920;28;20100;-78
2024/02/22 05:59:39;;;;;;;3.25;2.25;;;;;;;7.08;100.00;99370.19;5001879;28;20038;-77
2024/02/22 06:02:04;;;;;;;4.50;2.20;;;;;;;7.07;100.00;99379.25;4990738;28;20091;-77
2024/02/22 06:04:30;;;;;;;2.80;1.80;;;;;;;7.08;100.00;99381.63;4988144;28;20041;-75
2024/02/22 06:06:55;;;;;;;4.72;2.40;;;;;;;7.10;100.00;99373.34;5002636;28;20041;-76
2024/02/22 06:09:21;;;;;;;3.28;2.35;;;;;;;7.10;100.00;99368.03;4998496;28;20034;-77
2024/02/22 06:11:47;;;;;;;3.42;2.17;;;;;;;7.10;100.00;99363.50;5001036;28;20042;-78
2024/02/22 06:14:13;;;;;;;3.60;1.95;;;;;;;7.11;100.00;99367.75;4971703;28;20041;-77
2024/02/22 06:16:38;;;;;;;3.78;2.10;;;;;;;7.11;100.00;99365.09;5000076;28;20038;-77
2024/02/22 06:19:04;;;;;;;2.95;2.15;;;;;;;7.14;100.00;99362.94;5003542;28;20030;-77
2024/02/22 06:21:30;;;;;;;2.50;1.80;;;;;;;7.14;100.00;99353.09;5007099;28;20115;-77
2024/02/22 06:23:55;;;;;;;2.83;2.35;;;;;;;7.15;100.00;99353.88;4987897;28;20073;-76
2024/02/22 06:26:21;;;;;;;3.08;1.90;;;;;;;7.15;100.00;99346.69;4999578;28;20041;-76
2024/02/22 06:28:47;;;;;;;3.25;2.00;;;;;;;7.15;100.00;99351.22;4984985;28;20550;-76
2024/02/22 06:31:13;;;;;;;3.22;2.00;;;;;;;7.16;100.00;99347.47;5003832;28;20037;-77
2024/02/22 06:33:39;;;;;;;2.17;1.65;;;;;;;7.15;100.00;99346.69;4987243;28;20064;-77
2024/02/22 06:36:06;;;;;;;3.10;2.15;;;;;;;7.16;100.00;99348.28;5002182;28;20531;-75
2024/02/22 06:38:32;;;;;;;1.92;1.60;;;;;;;7.16;100.00;99334.97;4995680;28;20114;-76
2024/02/22 06:41:00;;;;;;;3.03;1.85;;;;;;;7.17;100.00;99335.75;5000949;28;20038;-79
2024/02/22 06:43:26;;;;;;;2.30;1.73;;;;;;;7.17;100.00;99336.53;5001431;28;20030;-76
2024/02/22 06:45:51;;;;;;;4.03;1.70;;;;;;;7.17;100.00;99328.56;5001706;28;20036;-76
2024/02/22 06:48:17;;;;;;;3.25;1.60;;;;;;;7.16;100.00;99334.97;4991850;28;20116;-76
2024/02/22 06:50:43;;;;;;;2.40;1.65;;;;;;;7.18;100.00;99332.81;5005374;28;20033;-77
2024/02/22 06:53:09;;;;;;;1.90;1.48;;;;;;;7.19;100.00;99333.63;5006017;28;20355;-77
2024/02/22 06:55:35;;;;;;;2.53;1.70;;;;;;;7.20;100.00;99330.66;4989516;28;20422;-76
2024/02/22 06:58:02;;;;;;;3.15;1.92;;;;;;;7.21;100.00;99332.25;5004015;28;20508;-76
2024/02/22 07:00:28;;;;;;;2.42;1.92;;;;;;;7.22;100.00;99336.50;4986008;28;20042;-78
2024/02/22 07:02:54;;;;;;;3.28;2.10;;;;;;;7.24;100.00;99330.88;4998355;28;20104;-77
2024/02/22 07:05:20;;;;;;;3.47;1.90;;;;;;;7.24;100.00;99334.34;5005070;28;20052;-77
2024/02/22 07:07:46;;;;;;;;;;;;;;;7.24;100.00;99326.34;5006557;28;20045;-76
2024/02/22 07:10:14;;;;;;;3.35;1.70;;;;;;;7.24;100.00;99331.69;5004234;28;20573;-75
2024/02/22 07:12:43;;;;;;;2.42;1.75;;;;;;;7.26;100.00;99328.75;5024110;28;20048;-76
2024/02/22 07:15:10;;;;;;;4.32;2.40;;;;;;;7.28;100.00;99327.38;5002502;28;20058;-77
2024/02/22 07:17:36;;;;;;;2.83;2.00;;;;;;;7.28;100.00;99323.94;5000922;28;20049;-76
2024/02/22 07:20:02;;;;;;;4.72;2.40;;;;;;;7.30;100.00;99313.78;5006409;28;20042;-76
2024/02/22 07:22:27;;;;;;;4.10;2.45;;;;;;;7.30;100.00;99306.59;5001824;28;20092;-78
2024/02/22 07:24:53;;;;;;;3.67;2.55;;;;;;;7.32;100.00;99312.44;5005613;28;20042;-77
2024/02/22 07:27:18;;;;;;;3.65;2.20;;;;;;;7.34;100.00;99310.28;5006091;28;20064;-76
2024/02/22 07:29:44;;;;;;;3.60;2.22;;;;;;;7.36;100.00;99299.34;4974310;28;20517;-76
2024/02/22 07:32:10;;;;;;;4.45;2.70;;;;;;;7.38;100.00;99308.66;4991706;28;20065;-77
2024/02/22 07:34:35;;;;;;;5.47;2.65;;;;;;;7.40;100.00;99303.03;4972553;28;20046;-76
2024/02/22 07:37:01;;;;;;;5.25;3.20;;;;;;;7.42;100.00;99305.41;5005286;28;20625;-77
2024/02/22 07:39:27;;;;;;;4.50;3.20;;;;;;;7.43;100.00;99302.47;4985181;28;20033;-76
2024/02/22 07:41:55;;;;;;;5.75;2.63;;;;;;;7.46;100.00;99301.13;5001568;28;20030;-77
2024/02/22 07:44:20;;;;;;;4.70;2.95;;;;;;;7.47;100.00;99302.69;5000527;28;20296;-76
2024/02/22 07:46:46;;;;;;;4.95;3.10;;;;;;;7.48;100.00;99296.28;4992463;28;20569;-75
2024/02/22 07:49:12;;;;;;;5.72;3.35;;;;;;;7.48;100.00;99294.41;5004879;28;20057;-77
2024/02/22 07:51:38;;;;;;;4.57;2.78;;;;;;;7.50;100.00;99292.25;5004461;28;20046;-76
2024/02/22 07:54:03;;;;;;;8.40;3.50;;;;;;;7.51;100.00;99299.16;5009235;28;20104;-78
2024/02/22 07:56:29;;;;;;;5.07;3.75;;;;;;;7.53;100.00;99296.25;5016599;28;20034;-77
2024/02/22 07:58:57;;;;;;;7.65;3.83;;;;;;;7.54;100.00;99297.81;4989603;28;20052;-76
2024/02/22 08:01:23;;;;;;;5.65;3.30;;;;;;;7.56;100.00;99306.31;4996582;28;20168;-77
2024/02/22 08:03:49;;;;;;;;;;;;;;;7.56;100.00;99301.78;5004945;28;20046;-76
2024/02/22 08:06:16;;;;;;;4.68;3.20;;;;;;;7.58;100.00;99298.81;5000562;28;19917;-76
2024/02/22 08:08:42;;;;;;;4.60;3.38;;;;;;;7.59;100.00;99300.44;5004568;28;20053;-76
2024/02/22 08:11:09;;;;;;;;;;;;;;;7.60;100.00;99296.69;5005186;28;20065;-78
2024/02/22 08:13:35;;;;;;;4.93;3.45;;;;;;;7.61;100.00;99290.28;5005602;28;19922;-77
2024/02/22 08:16:05;;;;;;;5.40;3.60;;;;;;;7.64;100.00;99284.34;5007016;28;20041;-77
2024/02/22 08:18:33;;;;;;;6.93;3.63;;;;;;;7.66;100.00;99284.88;5003598;28;20045;-76
2024/02/22 08:20:59;;;;;;;6.43;4.00;;;;;;;7.70;100.00;99282.44;4986180;28;20071;-76
2024/02/22 08:23:25;;;;;;;5.10;3.47;;;;;;;7.72;100.00;99278.38;5004365;28;20526;-76
2024/02/22 08:25:51;;;;;;;7.22;3.92;;;;;;;7.76;100.00;99276.75;4999771;28;20034;-76
2024/02/22 08:28:16;;;;;;;8.55;4.07;;;;;;;7.80;100.00;99275.13;5005071;28;20033;-77
2024/02/22 08:30:42;;;;;;;7.15;4.03;;;;;;;7.82;100.00;99272.16;5003096;28;20026;-76
2024/02/22 08:33:08;;;;;;;7.38;4.47;;;;;;;7.86;100.00;99267.84;5005521;28;20044;-76
2024/02/22 08:35:34;;;;;;;7.13;4.18;;;;;;;7.88;100.00;99266.47;5006097;28;20080;-76
2024/02/22 08:37:59;;;;;;;10.85;4.32;;;;;;;7.93;100.00;99265.63;5005342;28;20046;-78
2024/02/22 08:40:25;;;;;;;7.88;4.22;;;;;;;7.98;100.00;99259.41;5006214;28;20397;-77
2024/02/22 08:42:53;;;;;;;8.50;4.50;;;;;;;8.02;100.00;99260.44;5007332;28;20041;-79
2024/02/22 08:45:20;;;;;;;9.98;4.93;;;;;;;8.07;100.00;99273.69;4999417;28;20041;-79
2024/02/22 08:47:45;;;;;;;7.88;4.50;;;;;;;8.08;100.00;99276.06;5004554;28;20045;-77
2024/02/22 08:50:15;;;;;;;9.60;4.65;;;;;;;8.08;100.00;99275.28;4992843;28;20896;-78
2024/02/22 08:52:41;;;;;;;8.02;4.40;;;;;;;8.07;100.00;99265.69;5000853;28;20082;-77
2024/02/22 08:55:09;;;;;;;8.50;4.75;;;;;;;8.07;100.00;99268.34;5005482;28;20034;-77
2024/02/22 08:57:35;;;;;;;8.45;4.35;;;;;;;8.10;100.00;99255.22;5003009;28;20056;-76
2024/02/22 09:00:01;;;;;;;8.88;4.50;;;;;;;8.12;100.00;99255.72;5000250;28;20033;-76
2024/02/22 09:02:27;;;;;;;8.30;4.55;;;;;;;8.14;100.00;99245.56;4968878;28;20492;-76
2024/02/22 09:04:52;;;;;;;8.45;4.25;;;;;;;8.15;100.00;99241.03;5005242;28;20423;-76
2024/02/22 09:07:18;;;;;;;7.90;4.13;;;;;;;8.15;100.00;99233.81;5005106;28;20120;-78
2024/02/22 09:09:45;;;;;;;7.68;4.28;;;;;;;8.21;100.00;99235.34;4988785;28;20041;-77
2024/02/22 09:12:12;;;;;;;;;;;;;;;8.26;100.00;99234.44;4991180;28;20034;-76
2024/02/22 09:14:38;;;;;;;6.85;3.88;;;;;;;8.30;100.00;99234.66;4985465;28;19921;-75
2024/02/22 09:17:04;;;;;;;8.32;4.90;;;;;;;8.33;100.00;99234.91;4999690;28;20048;-77
2024/02/22 09:19:30;;;;;;;7.82;4.78;;;;;;;8.36;100.00;99234.31;5003746;28;20037;-77
2024/02/22 09:21:59;;;;;;;8.48;4.50;;;;;;;8.38;100.00;99237.50;5004089;28;20046;-76
2024/02/22 09:24:25;;;;;;;9.73;4.90;;;;;;;8.42;100.00;99229.72;4993703;28;20542;-76
2024/02/22 09:26:51;;;;;;;6.88;4.63;;;;;;;8.44;100.00;99231.00;4982219;28;20049;-77
2024/02/22 09:29:16;;;;;;;8.20;5.07;;;;;;;8.47;100.00;99225.09;5000408;28;20030;-75
2024/02/22 09:31:42;;;;;;;8.63;4.43;;;;;;;8.52;100.00;99223.41;5004144;28;20963;-76
2024/02/22 09:34:08;;;;;;;7.93;5.20;;;;;;;8.53;100.00;99222.31;4985391;28;20336;-75
2024/02/22 09:36:34;;;;;;;8.73;4.75;;;;;;;8.57;100.00;99218.78;5015690;28;20050;-76
2024/02/22 09:39:00;;;;;;;7.93;4.55;;;;;;;8.58;100.00;99208.91;5004028;28;20038;-76
2024/02/22 09:41:26;;;;;;;6.05;4.30;;;;;;;8.61;100.00;99213.66;4986010;28;20042;-77
2024/02/22 09:43:56;;;;;;;8.40;4.57;;;;;;;8.65;100.00;99206.63;4998212;28;20077;-77
2024/02/22 09:46:22;;;;;;;6.78;4.25;;;;;;;8.67;100.00;99199.94;5001363;28;20053;-77
2024/02/22 09:48:48;;;;;;;6.63;4.35;;;;;;;8.75;100.00;99188.56;5004454;28;20077;-76
2024/02/22 09:51:14;;;;;;;6.50;4.43;;;;;;;8.82;100.00;99174.03;5003172;28;20076;-77
2024/02/22 09:53:40;;;;;;;9.30;3.90;;;;;;;8.89;100.00;99172.56;5003201;28;20079;-77
2024/02/22 09:56:09;;;;;;;7.93;4.78;;;;;;;8.92;100.00;99166.63;5002462;28;20034;-78
2024/02/22 09:58:35;;;;;;;5.65;3.65;;;;;;;9.03;100.00;99168.00;4997020;28;20558;-76
2024/02/22 10:01:01;;;;;;;5.45;3.67;;;;;;;9.09;100.00;99176.72;4980989;28;20045;-76
2024/02/22 10:03:31;;;;;;;7.35;4.15;;;;;;;9.11;100.00;99168.41;4979745;28;20034;-76
2024/02/22 10:05:58;;;;;;;6.05;3.80;;;;;;;9.16;100.00;99169.09;4998214;28;20045;-77
2024/02/22 10:08:24;;;;;;;5.03;3.33;;;;;;;9.19;100.00;99170.38;5002175;28;20044;-77
2024/02/22 10:10:50;;;;;;;6.70;3.55;;;;;;;9.25;100.00;99163.84;4995723;28;20030;-78
2024/02/22 10:13:20;;;;;;;4.97;3.70;;;;;;;9.31;100.00;99151.97;4958185;28;20038;-75
2024/02/22 10:15:46;;;;;;;8.18;3.83;;;;;;;9.32;100.00;99137.50;5001917;28;20415;-78
2024/02/22 10:18:12;;;;;;;4.45;3.22;;;;;;;9.42;100.00;99123.94;4982732;28;20030;-77
2024/02/22 10:20:38;;;;;;;3.88;2.88;;;;;;;9.52;100.00;99118.34;4995542;28;20106;-76
2024/02/22 10:23:08;;;;;;;3.20;2.50;;;;;;;9.62;100.00;99117.34;5009832;28;20049;-77
2024/02/22 10:25:35;;;;;;;3.85;2.90;;;;;;;9.67;100.00;99119.09;5008340;28;20586;-76
2024/02/22 10:28:02;;;;;;;3.58;2.75;;;;;;;9.78;100.00;99123.91;4987764;28;20049;-76
2024/02/22 10:30:28;;;;;;;3.47;2.30;;;;;;;9.82;100.00;99134.78;5005459;28;20479;-75
2024/02/22 10:32:55;;;;;;;2.83;2.15;;;;;;;9.82;100.00;99146.28;5006911;28;20152;-77
2024/02/22 10:35:23;;;;;;;3.15;2.45;;;;;;;9.76;100.00;99141.38;5010252;28;20053;-77
2024/02/22 10:37:52;;;;;;;2.50;2.00;;;;;;;9.74;100.00;99151.53;4986458;28;20406;-77
2024/02/22 10:40:19;;;;;;;3.80;2.22;;;;;;;9.68;100.00;99150.88;5007884;28;20081;-78
2024/02/22 10:42:48;;;;;;;4.93;2.20;;;;;;;9.69;100.00;99149.81;5004026;28;20033;-78
2024/02/22 10:45:14;;;;;;;3.20;2.20;;;;;;;9.65;100.00;99154.16;5016706;28;20920;-77
2024/02/22 10:47:40;;;;;;;3.50;2.05;;;;;;;9.60;100.00;99143.56;5004592;28;20125;-77
2024/02/22 10:50:07;;;;;;;;;;;;;;;9.58;100.00;99135.06;5004475;28;20038;-78
2024/02/22 10:52:40;;;;;;;4.00;2.72;;;;;;;9.58;100.00;99135.06;4994505;28;19967;-78
2024/02/22 10:55:10;;;;;;;4.50;2.85;;;;;;;9.56;100.00;99119.34;5001350;28;20041;-78
2024/02/22 10:57:37;;;;;;;5.90;3.92;;;;;;;9.51;100.00;99114.09;5001823;28;20054;-76
2024/02/22 11:00:05;;;;;;;7.47;3.88;;;;;;;9.51;100.00;99114.09;5006634;28;20772;-76
2024/02/22 11:02:33;;;;;;;6.90;4.22;;;;;;;9.47;100.00;99104.31;5004093;28;20060;-76
2024/02/22 11:05:01;;;;;;;7.78;5.45;;;;;;;9.46;100.00;99100.84;5003884;28;20068;-78
2024/02/22 11:07:28;;;;;;;10.30;5.80;;;;;;;9.49;100.00;99089.56;4985877;28;20038;-77
2024/02/22 11:09:56;;;;;;;9.30;5.55;;;;;;;9.52;100.00;99093.53;5008755;28;20044;-77
2024/02/22 11:12:30;;;;;;;10.98;5.80;;;;;;;9.50;100.00;99080.47;4997307;28;20048;-77
2024/02/22 11:15:06;;;;;;;10.05;6.40;;;;;;;9.47;100.00;99073.03;4985293;28;20049;-77
2024/02/22 11:17:33;;;;;;;9.93;6.07;;;;;;;9.49;100.00;99065.53;5003925;28;20046;-77
2024/02/22 11:20:07;;;;;;;10.38;6.38;;;;;;;9.49;100.00;99060.19;4990016;28;20030;-77
2024/02/22 11:22:36;;;;;;;12.85;6.97;;;;;;;9.47;100.00;99059.69;5011439;28;20049;-76
2024/02/22 11:25:06;;;;;;;12.85;6.55;;;;;;;9.50;100.00;99069.00;5010590;28;20046;-76
2024/02/22 11:27:32;;;;;;;12.20;6.80;;;;;;;9.49;100.00;99062.84;5010730;28;20045;-76
2024/02/22 11:29:59;;;;;;;11.48;7.30;;;;;;;9.48;100.00;99050.59;4990287;28;21523;-76
2024/02/22 11:32:25;;;;;;;11.45;7.60;;;;;;;9.51;100.00;99044.63;5003018;28;20038;-76